createdAt,value
2023-01-01T00:01:21.846Z,11.62
2023-01-01T00:03:52.575Z,11.67
2023-01-01T00:06:19.645Z,11.52
2023-01-01T00:08:46.635Z,11.43
2023-01-01T00:11:13.400Z,11.54
2023-01-01T00:13:41.775Z,11.34
2023-01-01T00:16:10.717Z,11.39
2023-01-01T00:18:37.997Z,11.63
2023-01-01T00:21:10.106Z,11.43
2023-01-01T00:23:36.546Z,11.61
2023-01-01T00:26:12.853Z,11.60
2023-01-01T00:28:39.549Z,11.46
2023-01-01T00:31:18.225Z,11.77
2023-01-01T00:33:46.321Z,11.92
2023-01-01T00:36:14.783Z,11.69
2023-01-01T00:38:42.619Z,11.73
2023-01-01T00:41:09.085Z,11.69
2023-01-01T00:43:36.019Z,11.54
2023-01-01T00:46:03.367Z,11.58
2023-01-01T00:48:29.824Z,11.42
2023-01-01T00:50:56.386Z,11.33
2023-01-01T00:53:23.024Z,11.30
2023-01-01T00:55:50.775Z,11.23
2023-01-01T00:58:18.865Z,11.21
2023-01-01T01:00:45.867Z,11.02
2023-01-01T01:03:28.445Z,10.88
2023-01-01T01:06:03.965Z,10.93
2023-01-01T01:08:35.660Z,10.82
2023-01-01T01:11:23.808Z,11.11
2023-01-01T01:13:51.449Z,11.08
2023-01-01T01:16:21.193Z,11.04
2023-01-01T01:18:50.926Z,11.18
2023-01-01T01:21:19.927Z,11.04
2023-01-01T01:23:46.612Z,11.23
2023-01-01T01:26:19.222Z,11.64
2023-01-01T01:28:49.770Z,11.45
2023-01-01T01:31:18.579Z,11.66
2023-01-01T01:33:46.067Z,11.73
2023-01-01T01:36:14.096Z,11.89
2023-01-01T01:38:40.551Z,11.91
2023-01-01T01:41:08.142Z,11.99
2023-01-01T01:43:34.502Z,11.86
2023-01-01T01:46:10.192Z,11.96
2023-01-01T01:48:41.140Z,11.86
2023-01-01T01:51:08.414Z,11.78
2023-01-01T01:53:39.484Z,11.74
2023-01-01T01:56:13.565Z,11.74
2023-01-01T01:58:40.091Z,11.54
2023-01-01T02:01:06.587Z,11.68
2023-01-01T02:03:53.253Z,11.92
2023-01-01T02:06:20.169Z,11.89
2023-01-01T02:08:49.109Z,11.71
2023-01-01T02:11:21.653Z,11.45
2023-01-01T02:13:49.267Z,11.59
2023-01-01T02:16:46.413Z,11.65
2023-01-01T02:19:26.302Z,11.67
2023-01-01T02:22:02.922Z,11.53
2023-01-01T02:24:48.655Z,11.42
2023-01-01T02:27:28.849Z,11.23
2023-01-01T02:30:01.480Z,11.39
2023-01-01T02:32:35.215Z,11.52
2023-01-01T02:35:24.951Z,11.59
2023-01-01T02:37:56.506Z,12.02
2023-01-01T02:40:24.987Z,12.21
2023-01-01T02:42:53.801Z,12.20
2023-01-01T02:45:20.356Z,12.30
2023-01-01T02:47:46.842Z,12.49
2023-01-01T02:50:23.870Z,12.49
2023-01-01T02:53:21.312Z,12.30
2023-01-01T02:56:08.266Z,11.84
2023-01-01T02:59:10.971Z,11.46
2023-01-01T03:01:46.769Z,11.59
2023-01-01T03:04:29.181Z,11.75
2023-01-01T03:07:13.668Z,11.64
2023-01-01T03:09:55.160Z,11.55
2023-01-01T03:12:26.170Z,11.49
2023-01-01T03:15:06.978Z,11.45
2023-01-01T03:17:38.642Z,11.48
2023-01-01T03:20:10.579Z,11.42
2023-01-01T03:25:13.295Z,11.00
2023-01-01T03:27:43.447Z,10.81
2023-01-01T03:30:13.145Z,10.89
2023-01-01T03:33:03.467Z,11.02
2023-01-01T03:35:47.178Z,10.78
2023-01-01T03:38:18.076Z,10.55
2023-01-01T03:40:46.990Z,10.64
2023-01-01T03:43:22.070Z,10.75
2023-01-01T03:45:52.133Z,10.89
2023-01-01T03:48:19.159Z,10.80
2023-01-01T03:51:08.643Z,10.95
2023-01-01T03:53:44.531Z,10.97
2023-01-01T03:56:20.156Z,10.53
2023-01-01T03:58:55.540Z,10.94
2023-01-01T04:01:33.652Z,10.98
2023-01-01T04:04:01.458Z,11.19
2023-01-01T04:06:28.179Z,11.23
2023-01-01T04:08:58.780Z,11.34
2023-01-01T04:11:47.403Z,11.34
2023-01-01T04:14:13.974Z,11.53
2023-01-01T04:16:40.539Z,11.49
2023-01-01T04:19:07.110Z,11.59
2023-01-01T04:21:33.887Z,11.79
2023-01-01T04:24:00.294Z,11.69
2023-01-01T04:26:26.748Z,11.47
2023-01-01T04:28:53.150Z,11.42
2023-01-01T04:31:19.631Z,11.35
2023-01-01T04:33:46.163Z,11.29
2023-01-01T04:36:12.721Z,11.16
2023-01-01T04:38:39.291Z,10.88
2023-01-01T04:41:05.921Z,10.96
2023-01-01T04:43:32.397Z,11.03
2023-01-01T04:46:00.601Z,10.73
2023-01-01T04:48:28.340Z,10.87
2023-01-01T04:50:56.379Z,10.78
2023-01-01T04:53:22.771Z,10.83
2023-01-01T04:55:49.382Z,11.02
2023-01-01T04:58:15.807Z,11.16
2023-01-01T05:00:42.313Z,11.54
2023-01-01T05:03:08.938Z,11.51
2023-01-01T05:05:35.576Z,11.36
2023-01-01T05:08:02.047Z,11.37
2023-01-01T05:10:28.488Z,10.96
2023-01-01T05:12:54.979Z,11.08
2023-01-01T05:15:21.449Z,10.82
2023-01-01T05:17:47.858Z,10.84
2023-01-01T05:20:14.596Z,10.59
2023-01-01T05:22:41.083Z,10.91
2023-01-01T05:25:07.879Z,10.95
2023-01-01T05:27:34.714Z,10.96
2023-01-01T05:30:01.205Z,10.71
2023-01-01T05:32:28.321Z,10.76
2023-01-01T05:34:55.184Z,10.98
2023-01-01T05:37:21.713Z,10.90
2023-01-01T05:39:49.226Z,10.84
2023-01-01T05:42:15.649Z,10.69
2023-01-01T05:44:42.213Z,11.00
2023-01-01T05:47:08.664Z,10.92
2023-01-01T05:49:36.452Z,11.03
2023-01-01T05:52:03.218Z,11.06
2023-01-01T05:54:29.646Z,11.26
2023-01-01T05:56:56.153Z,11.24
2023-01-01T05:59:22.728Z,11.31
2023-01-01T06:01:49.203Z,11.36
2023-01-01T06:04:15.886Z,11.32
2023-01-01T06:06:42.562Z,11.04
2023-01-01T06:09:10.132Z,11.12
2023-01-01T06:11:36.527Z,11.17
2023-01-01T06:14:03.054Z,11.17
2023-01-01T06:16:30.660Z,10.94
2023-01-01T06:18:57.083Z,10.72
2023-01-01T06:21:25.991Z,10.61
2023-01-01T06:23:54.694Z,10.59
2023-01-01T06:26:26.734Z,10.72
2023-01-01T06:28:53.251Z,10.85
2023-01-01T06:31:21.777Z,10.87
2023-01-01T06:33:50.833Z,10.75
2023-01-01T06:36:20.157Z,10.92
2023-01-01T06:38:48.475Z,10.95
2023-01-01T06:41:17.821Z,10.67
2023-01-01T06:43:45.036Z,10.60
2023-01-01T06:46:20.239Z,10.87
2023-01-01T06:48:52.817Z,10.78
2023-01-01T06:51:21.891Z,10.56
2023-01-01T06:53:49.811Z,10.61
2023-01-01T06:56:16.867Z,10.21
2023-01-01T06:58:43.611Z,10.37
2023-01-01T07:01:24.215Z,10.45
2023-01-01T07:03:56.159Z,10.18
2023-01-01T07:06:23.911Z,10.07
2023-01-01T07:08:51.059Z,9.94
2023-01-01T07:11:17.923Z,9.84
2023-01-01T07:13:44.735Z,10.04
2023-01-01T07:16:13.360Z,9.93
2023-01-01T07:18:40.943Z,9.84
2023-01-01T07:21:29.209Z,10.03
2023-01-01T07:23:57.816Z,9.80
2023-01-01T07:26:25.652Z,10.00
2023-01-01T07:28:52.307Z,10.02
2023-01-01T07:31:18.897Z,10.27
2023-01-01T07:33:45.544Z,10.42
2023-01-01T07:36:12.207Z,10.37
2023-01-01T07:38:38.695Z,10.61
2023-01-01T07:41:05.344Z,10.73
2023-01-01T07:43:31.835Z,10.68
2023-01-01T07:45:59.104Z,10.91
2023-01-01T07:48:25.714Z,11.10
2023-01-01T07:50:52.123Z,11.11
2023-01-01T07:53:18.580Z,11.13
2023-01-01T07:55:45.753Z,11.24
2023-01-01T07:58:12.755Z,11.31
2023-01-01T08:00:39.208Z,11.47
2023-01-01T08:03:06.924Z,11.62
2023-01-01T08:05:35.782Z,11.54
2023-01-01T08:08:02.257Z,11.75
2023-01-01T08:10:28.733Z,11.85
2023-01-01T08:13:03.779Z,11.83
2023-01-01T08:15:30.659Z,11.88
2023-01-01T08:18:01.659Z,12.09
2023-01-01T08:20:29.521Z,12.70
2023-01-01T08:22:59.078Z,13.09
2023-01-01T08:25:29.661Z,13.29
2023-01-01T08:27:56.059Z,13.35
2023-01-01T08:30:22.650Z,13.43
2023-01-01T08:32:49.123Z,13.31
2023-01-01T08:35:15.847Z,13.16
2023-01-01T08:37:42.292Z,13.36
2023-01-01T08:40:11.796Z,13.20
2023-01-01T08:42:38.420Z,13.33
2023-01-01T08:45:05.620Z,13.58
2023-01-01T08:47:32.065Z,14.31
2023-01-01T08:49:58.591Z,15.50
2023-01-01T08:52:25.032Z,16.82
2023-01-01T08:54:51.427Z,18.11
2023-01-01T08:57:17.998Z,19.80
2023-01-01T08:59:44.444Z,20.44
2023-01-01T09:02:12.321Z,19.52
2023-01-01T09:04:38.916Z,18.22
2023-01-01T09:07:05.457Z,17.34
2023-01-01T09:09:32.110Z,17.26
2023-01-01T09:12:03.900Z,17.61
2023-01-01T09:14:30.890Z,17.07
2023-01-01T09:16:57.595Z,16.79
2023-01-01T09:19:24.130Z,16.64
2023-01-01T09:21:50.994Z,17.50
2023-01-01T09:24:17.471Z,18.05
2023-01-01T09:26:45.732Z,18.53
2023-01-01T09:29:12.167Z,18.37
2023-01-01T09:31:38.635Z,18.03
2023-01-01T09:34:05.149Z,17.56
2023-01-01T09:36:33.257Z,16.90
2023-01-01T09:39:00.407Z,16.43
2023-01-01T09:41:55.110Z,16.20
2023-01-01T09:44:49.328Z,16.96
2023-01-01T09:47:32.349Z,17.69
2023-01-01T09:50:06.784Z,18.11
2023-01-01T09:52:45.733Z,18.09
2023-01-01T09:55:41.845Z,18.58
2023-01-01T09:58:11.607Z,18.52
2023-01-01T10:00:42.265Z,18.44
2023-01-01T10:03:39.783Z,18.18
2023-01-01T10:06:27.669Z,17.83
2023-01-01T10:08:57.171Z,17.46
2023-01-01T10:11:55.835Z,17.21
2023-01-01T10:14:30.511Z,17.10
2023-01-01T10:16:59.204Z,16.77
2023-01-01T10:19:32.346Z,16.87
2023-01-01T10:22:05.770Z,16.86
2023-01-01T10:24:35.250Z,16.73
2023-01-01T10:27:05.343Z,16.74
2023-01-01T10:29:45.256Z,16.87
2023-01-01T10:32:19.012Z,17.16
2023-01-01T10:34:46.208Z,17.22
2023-01-01T10:37:15.029Z,17.37
2023-01-01T10:39:43.330Z,17.75
2023-01-01T10:42:13.359Z,17.87
2023-01-01T10:44:40.304Z,17.81
2023-01-01T10:47:38.978Z,17.95
2023-01-01T10:50:07.770Z,18.39
2023-01-01T10:52:40.690Z,18.55
2023-01-01T10:55:20.761Z,18.49
2023-01-01T10:57:47.161Z,18.51
2023-01-01T11:00:24.248Z,18.56
2023-01-01T11:03:19.669Z,18.64
2023-01-01T11:06:20.682Z,18.65
2023-01-01T11:08:49.995Z,18.62
2023-01-01T11:11:42.984Z,18.59
2023-01-01T11:14:21.904Z,18.33
2023-01-01T11:16:49.348Z,18.20
2023-01-01T11:19:27.816Z,18.16
2023-01-01T11:21:54.451Z,18.33
2023-01-01T11:24:23.580Z,18.36
2023-01-01T11:26:54.950Z,18.38
2023-01-01T11:29:29.583Z,18.54
2023-01-01T11:31:58.554Z,18.64
2023-01-01T11:34:34.303Z,18.53
2023-01-01T11:37:28.625Z,18.62
2023-01-01T11:39:57.621Z,18.69
2023-01-01T11:42:27.306Z,18.61
2023-01-01T11:45:25.190Z,18.70
2023-01-01T11:48:12.220Z,18.85
2023-01-01T11:50:41.138Z,19.05
2023-01-01T11:53:27.983Z,19.14
2023-01-01T11:56:06.639Z,19.15
2023-01-01T11:58:36.167Z,18.86
2023-01-01T12:01:10.369Z,18.85
2023-01-01T12:03:47.881Z,18.77
2023-01-01T12:06:25.059Z,18.87
2023-01-01T12:09:00.034Z,18.92
2023-01-01T12:11:36.345Z,18.87
2023-01-01T12:14:19.550Z,19.12
2023-01-01T12:16:55.102Z,19.01
2023-01-01T12:19:40.261Z,19.05
2023-01-01T12:22:17.210Z,19.08
2023-01-01T12:24:47.660Z,19.27
2023-01-01T12:27:32.115Z,19.56
2023-01-01T12:30:12.977Z,19.70
2023-01-01T12:32:54.670Z,19.72
2023-01-01T12:35:58.020Z,19.76
2023-01-01T12:38:40.004Z,19.64
2023-01-01T12:41:28.247Z,19.59
2023-01-01T12:44:27.785Z,19.56
2023-01-01T12:47:08.995Z,19.46
2023-01-01T12:49:38.810Z,19.48
2023-01-01T12:52:33.595Z,19.46
2023-01-01T12:55:25.055Z,19.51
2023-01-01T12:57:55.316Z,19.38
2023-01-01T13:00:21.793Z,19.51
2023-01-01T13:02:55.644Z,19.76
2023-01-01T13:05:35.351Z,19.79
2023-01-01T13:08:04.955Z,19.83
2023-01-01T13:10:40.309Z,19.79
2023-01-01T13:13:06.956Z,19.73
2023-01-01T13:15:43.937Z,19.69
2023-01-01T13:18:21.029Z,19.47
2023-01-01T13:20:56.355Z,19.21
2023-01-01T13:23:29.379Z,19.37
2023-01-01T13:26:17.303Z,19.65
2023-01-01T13:28:50.391Z,19.65
2023-01-01T13:31:16.867Z,19.72
2023-01-01T13:33:43.467Z,19.48
2023-01-01T13:36:11.228Z,19.59
2023-01-01T13:38:51.714Z,19.36
2023-01-01T13:41:30.547Z,19.76
2023-01-01T13:44:00.099Z,19.75
2023-01-01T13:46:41.568Z,19.63
2023-01-01T13:49:49.160Z,19.59
2023-01-01T13:52:58.496Z,19.37
2023-01-01T13:55:51.699Z,19.52
2023-01-01T13:58:50.392Z,19.60
2023-01-01T14:01:49.841Z,19.66
2023-01-01T14:04:51.820Z,19.48
2023-01-01T14:07:50.847Z,19.36
2023-01-01T14:10:27.801Z,19.36
2023-01-01T14:13:15.574Z,19.31
2023-01-01T14:15:53.383Z,19.25
2023-01-01T14:18:22.977Z,19.13
2023-01-01T14:20:51.644Z,18.71
2023-01-01T14:23:35.592Z,18.34
2023-01-01T14:26:06.781Z,18.04
2023-01-01T14:28:35.441Z,17.76
2023-01-01T14:31:10.633Z,17.57
2023-01-01T14:33:38.302Z,17.55
2023-01-01T14:36:14.339Z,17.32
2023-01-01T14:38:46.978Z,17.05
2023-01-01T14:41:39.639Z,16.64
2023-01-01T14:44:15.431Z,16.64
2023-01-01T14:46:46.041Z,16.72
2023-01-01T14:49:18.010Z,16.62
2023-01-01T14:51:49.711Z,16.31
2023-01-01T14:54:21.188Z,16.36
2023-01-01T14:56:49.900Z,16.10
2023-01-01T14:59:30.843Z,16.08
2023-01-01T15:02:02.906Z,16.03
2023-01-01T15:04:30.320Z,15.63
2023-01-01T15:06:58.683Z,15.50
2023-01-01T15:09:34.248Z,15.32
2023-01-01T15:12:00.733Z,15.25
2023-01-01T15:14:32.127Z,15.03
2023-01-01T15:17:10.920Z,14.98
2023-01-01T15:19:41.287Z,14.91
2023-01-01T15:22:11.990Z,14.96
2023-01-01T15:24:39.404Z,15.07
2023-01-01T15:27:08.262Z,14.94
2023-01-01T15:29:40.137Z,15.02
2023-01-01T15:32:13.573Z,14.80
2023-01-01T15:34:53.778Z,14.54
2023-01-01T15:37:26.335Z,14.40
2023-01-01T15:39:56.624Z,14.59
2023-01-01T15:42:35.997Z,14.29
2023-01-01T15:45:21.474Z,14.44
2023-01-01T15:47:53.090Z,14.47
2023-01-01T15:50:25.540Z,14.85
2023-01-01T15:53:25.430Z,15.28
2023-01-01T15:55:57.378Z,15.53
2023-01-01T15:58:37.145Z,15.52
2023-01-01T16:01:10.943Z,15.66
2023-01-01T16:03:40.052Z,15.46
2023-01-01T16:06:07.440Z,15.50
2023-01-01T16:08:33.983Z,15.46
2023-01-01T16:11:00.436Z,15.20
2023-01-01T16:13:26.969Z,15.27
2023-01-01T16:15:57.035Z,15.29
2023-01-01T16:18:29.825Z,15.13
2023-01-01T16:20:56.778Z,14.87
2023-01-01T16:23:23.898Z,14.48
2023-01-01T16:25:50.315Z,14.17
2023-01-01T16:28:16.836Z,13.97
2023-01-01T16:30:44.518Z,13.95
2023-01-01T16:33:15.374Z,13.42
2023-01-01T16:35:41.913Z,13.36
2023-01-01T16:38:08.505Z,13.09
2023-01-01T16:40:37.883Z,13.19
2023-01-01T16:43:09.442Z,12.94
2023-01-01T16:45:36.404Z,12.65
2023-01-01T16:48:03.030Z,12.66
2023-01-01T16:50:29.644Z,12.83
2023-01-01T16:52:56.083Z,12.99
2023-01-01T16:55:22.630Z,12.95
2023-01-01T16:57:49.183Z,12.80
2023-01-01T17:00:16.007Z,12.60
2023-01-01T17:02:42.642Z,12.46
2023-01-01T17:05:10.793Z,12.38
2023-01-01T17:07:37.241Z,12.30
2023-01-01T17:10:04.495Z,12.37
2023-01-01T17:12:31.514Z,12.47
2023-01-01T17:14:58.113Z,12.36
2023-01-01T17:17:24.615Z,12.58
2023-01-01T17:19:51.138Z,12.52
2023-01-01T17:22:17.507Z,12.68
2023-01-01T17:24:44.192Z,12.84
2023-01-01T17:27:10.684Z,12.82
2023-01-01T17:29:37.157Z,12.99
2023-01-01T17:32:03.779Z,12.94
2023-01-01T17:34:30.275Z,12.85
2023-01-01T17:36:56.683Z,13.13
2023-01-01T17:39:23.055Z,12.98
2023-01-01T17:41:49.528Z,12.74
2023-01-01T17:44:16.004Z,12.56
2023-01-01T17:46:44.260Z,12.65
2023-01-01T17:49:11.077Z,12.37
2023-01-01T17:51:39.201Z,12.24
2023-01-01T17:54:07.195Z,11.88
2023-01-01T17:56:34.031Z,11.81
2023-01-01T17:59:00.491Z,11.68
2023-01-01T18:01:32.680Z,11.69
2023-01-01T18:04:01.990Z,11.84
2023-01-01T18:06:30.294Z,11.71
2023-01-01T18:09:02.343Z,11.47
2023-01-01T18:11:29.898Z,11.39
2023-01-01T18:14:01.347Z,11.25
2023-01-01T18:16:28.599Z,11.22
2023-01-01T18:18:55.923Z,11.07
2023-01-01T18:21:23.801Z,11.14
2023-01-01T18:23:51.181Z,11.16
2023-01-01T18:26:18.667Z,11.06
2023-01-01T18:28:45.100Z,11.08
2023-01-01T18:31:17.050Z,11.02
2023-01-01T18:33:43.974Z,11.31
2023-01-01T18:36:16.248Z,11.39
2023-01-01T18:38:48.546Z,11.40
2023-01-01T18:41:14.856Z,11.54
2023-01-01T18:43:41.361Z,11.52
2023-01-01T18:46:09.869Z,11.28
2023-01-01T18:48:36.913Z,11.17
2023-01-01T18:51:14.494Z,10.85
2023-01-01T18:53:41.061Z,10.72
2023-01-01T18:56:12.647Z,10.68
2023-01-01T18:58:43.026Z,10.50
2023-01-01T19:01:14.908Z,10.39
2023-01-01T19:03:42.037Z,10.60
2023-01-01T19:06:28.454Z,10.45
2023-01-01T19:09:12.613Z,10.41
2023-01-01T19:11:39.173Z,10.74
2023-01-01T19:14:20.753Z,10.64
2023-01-01T19:16:49.666Z,11.06
2023-01-01T19:19:21.471Z,10.57
2023-01-01T19:21:52.097Z,10.84
2023-01-01T19:24:23.535Z,11.09
2023-01-01T19:26:56.116Z,10.97
2023-01-01T19:29:24.889Z,11.08
2023-01-01T19:31:56.555Z,10.92
2023-01-01T19:34:24.700Z,11.11
2023-01-01T19:36:51.320Z,10.73
2023-01-01T19:39:17.901Z,10.98
2023-01-01T19:41:44.360Z,10.90
2023-01-01T19:44:10.964Z,10.68
2023-01-01T19:46:37.483Z,10.87
2023-01-01T19:49:04.016Z,10.74
2023-01-01T19:51:30.589Z,10.77
2023-01-01T19:53:56.995Z,10.53
2023-01-01T19:56:23.720Z,10.60
2023-01-01T19:58:50.275Z,10.50
2023-01-01T20:01:16.846Z,10.49
2023-01-01T20:03:54.250Z,10.73
2023-01-01T20:06:22.140Z,10.90
2023-01-01T20:08:48.578Z,10.68
2023-01-01T20:11:15.602Z,11.02
2023-01-01T20:13:42.480Z,11.11
2023-01-01T20:16:09.266Z,11.04
2023-01-01T20:18:35.838Z,11.16
2023-01-01T20:21:34.597Z,11.14
2023-01-01T20:24:01.083Z,11.32
2023-01-01T20:26:27.603Z,11.42
2023-01-01T20:29:12.635Z,11.39
2023-01-01T20:31:40.080Z,11.58
2023-01-01T20:34:06.530Z,11.47
2023-01-01T20:36:51.734Z,11.47
2023-01-01T20:39:18.211Z,11.53
2023-01-01T20:41:44.734Z,11.50
2023-01-01T20:44:11.242Z,11.39
2023-01-01T20:46:38.431Z,11.38
2023-01-01T20:49:05.115Z,11.07
2023-01-01T20:51:31.504Z,11.13
2023-01-01T20:53:57.957Z,10.94
2023-01-01T20:56:24.550Z,10.94
2023-01-01T20:58:56.086Z,11.11
2023-01-01T21:01:26.228Z,11.23
2023-01-01T21:03:52.843Z,11.16
2023-01-01T21:06:24.155Z,11.09
2023-01-01T21:08:51.183Z,11.08
2023-01-01T21:11:17.589Z,11.05
2023-01-01T21:13:44.558Z,11.23
2023-01-01T21:16:24.556Z,11.37
2023-01-01T21:18:51.875Z,11.22
2023-01-01T21:21:26.577Z,11.24
2023-01-01T21:23:57.635Z,11.26
2023-01-01T21:26:32.211Z,11.19
2023-01-01T21:28:59.947Z,10.93
2023-01-01T21:31:27.686Z,10.78
2023-01-01T21:33:54.335Z,10.62
2023-01-01T21:36:23.694Z,10.67
2023-01-01T21:38:52.151Z,10.43
2023-01-01T21:41:25.167Z,10.64
2023-01-01T21:43:56.844Z,10.69
2023-01-01T21:46:34.775Z,10.37
2023-01-01T21:49:17.325Z,10.06
2023-01-01T21:51:54.024Z,9.92
2023-01-01T21:54:37.627Z,9.86
2023-01-01T21:57:24.200Z,10.08
2023-01-01T21:59:51.726Z,9.87
2023-01-01T22:02:31.933Z,10.11
2023-01-01T22:05:01.680Z,10.16
2023-01-01T22:10:25.378Z,10.45
2023-01-01T22:13:00.335Z,10.74
2023-01-01T22:15:36.292Z,10.94
2023-01-01T22:18:11.954Z,11.07
2023-01-01T22:20:40.093Z,10.90
2023-01-01T22:23:37.549Z,10.98
2023-01-01T22:26:11.832Z,10.88
2023-01-01T22:28:43.272Z,10.80
2023-01-01T22:31:17.467Z,10.77
2023-01-01T22:33:47.037Z,10.80
2023-01-01T22:36:15.842Z,10.73
2023-01-01T22:38:42.734Z,10.70
2023-01-01T22:41:09.857Z,10.67
2023-01-01T22:43:39.878Z,10.49
2023-01-01T22:46:17.094Z,10.55
2023-01-01T22:48:43.946Z,10.70
2023-01-01T22:51:18.443Z,10.74
2023-01-01T22:53:45.294Z,11.04
2023-01-01T22:56:11.796Z,11.17
2023-01-01T22:58:38.350Z,11.44
2023-01-01T23:01:04.957Z,11.54
2023-01-01T23:03:31.566Z,11.77
2023-01-01T23:05:58.617Z,11.93
2023-01-01T23:08:25.955Z,12.00
2023-01-01T23:10:53.910Z,12.16
2023-01-01T23:13:39.051Z,12.31
2023-01-01T23:16:05.654Z,12.19
2023-01-01T23:18:34.700Z,12.12
2023-01-01T23:21:03.156Z,11.85
2023-01-01T23:23:30.816Z,11.91
2023-01-01T23:25:58.055Z,11.90
2023-01-01T23:28:26.382Z,11.79
2023-01-01T23:30:53.497Z,11.76
2023-01-01T23:33:21.557Z,11.76
2023-01-01T23:35:48.865Z,11.78
2023-01-01T23:38:15.803Z,11.74
2023-01-01T23:40:42.344Z,11.68
2023-01-01T23:43:08.836Z,11.62
2023-01-01T23:45:37.150Z,11.58
2023-01-01T23:48:04.795Z,11.56
2023-01-01T23:50:31.865Z,11.52
2023-01-01T23:52:58.483Z,11.45
2023-01-01T23:55:24.906Z,11.44
2023-01-01T23:57:52.150Z,11.23
